createdAt,value
2018-12-18T00:01:44.257Z,3.67
2018-12-18T00:04:12.451Z,2.83
2018-12-18T00:06:40.644Z,3.27
2018-12-18T00:09:08.829Z,3.63
2018-12-18T00:11:36.953Z,4.70
2018-12-18T00:14:05.132Z,3.87
2018-12-18T00:16:33.311Z,3.00
2018-12-18T00:19:01.519Z,3.20
2018-12-18T00:21:29.752Z,4.00
2018-12-18T00:23:57.951Z,2.87
2018-12-18T00:26:26.080Z,3.50
2018-12-18T00:28:54.256Z,2.83
2018-12-18T00:31:22.389Z,3.87
2018-12-18T00:33:50.526Z,3.60
2018-12-18T00:36:18.691Z,3.73
2018-12-18T00:38:46.851Z,5.13
2018-12-18T00:41:15.078Z,3.83
2018-12-18T00:43:43.195Z,4.87
2018-12-18T00:46:11.456Z,3.80
2018-12-18T00:48:39.592Z,3.27
2018-12-18T00:51:07.714Z,3.80
2018-12-18T00:53:35.854Z,3.90
2018-12-18T00:56:04.069Z,4.50
2018-12-18T00:58:32.192Z,3.63
2018-12-18T01:01:00.309Z,3.50
2018-12-18T01:03:28.430Z,4.40
2018-12-18T01:05:56.687Z,4.17
2018-12-18T01:08:24.813Z,3.50
2018-12-18T01:10:53.027Z,4.40
2018-12-18T01:13:21.208Z,3.40
2018-12-18T01:15:49.403Z,3.70
2018-12-18T01:18:17.524Z,3.83
2018-12-18T01:20:45.645Z,3.20
2018-12-18T01:23:13.815Z,4.27
2018-12-18T01:25:41.995Z,4.37
2018-12-18T01:28:10.113Z,4.20
2018-12-18T01:30:38.240Z,3.47
2018-12-18T01:33:06.369Z,3.67
2018-12-18T01:35:34.508Z,3.73
2018-12-18T01:38:02.628Z,4.27
2018-12-18T01:40:30.757Z,4.90
2018-12-18T01:42:58.956Z,3.73
2018-12-18T01:45:27.077Z,3.20
2018-12-18T01:47:55.190Z,2.90
2018-12-18T01:50:23.311Z,3.40
2018-12-18T01:52:51.442Z,2.80
2018-12-18T01:55:19.568Z,3.20
2018-12-18T01:57:47.696Z,4.83
2018-12-18T02:00:16.023Z,4.50
2018-12-18T02:02:44.211Z,3.33
2018-12-18T02:05:12.501Z,4.30
2018-12-18T02:07:40.699Z,4.10
2018-12-18T02:10:08.819Z,4.03
2018-12-18T02:12:36.961Z,3.63
2018-12-18T02:15:05.272Z,4.47
2018-12-18T02:17:33.540Z,3.70
2018-12-18T02:20:01.710Z,3.93
2018-12-18T02:22:29.929Z,3.57
2018-12-18T02:24:58.121Z,3.93
2018-12-18T02:27:26.345Z,4.00
2018-12-18T02:29:54.532Z,3.80
2018-12-18T02:34:56.223Z,3.17
2018-12-18T02:37:24.465Z,3.70
2018-12-18T02:39:52.599Z,4.07
2018-12-18T02:42:20.771Z,4.13
2018-12-18T02:44:48.984Z,5.33
2018-12-18T02:47:17.167Z,3.67
2018-12-18T02:49:45.298Z,4.30
2018-12-18T02:52:13.396Z,4.70
2018-12-18T02:54:41.567Z,3.97
2018-12-18T02:57:09.724Z,3.40
2018-12-18T02:59:37.880Z,4.50
2018-12-18T03:02:06.148Z,5.27
2018-12-18T03:04:34.379Z,3.30
2018-12-18T03:07:02.683Z,4.20
2018-12-18T03:09:31.022Z,4.77
2018-12-18T03:11:59.148Z,4.20
2018-12-18T03:17:20.029Z,6.10
2018-12-18T03:19:48.228Z,3.90
2018-12-18T03:22:16.401Z,4.27
2018-12-18T03:24:44.683Z,3.73
2018-12-18T03:27:13.050Z,5.20
2018-12-18T03:29:41.298Z,4.33
2018-12-18T03:32:15.802Z,3.70
2018-12-18T03:34:43.999Z,4.17
2018-12-18T03:37:12.199Z,2.80
2018-12-18T03:39:40.464Z,3.67
2018-12-18T03:42:08.741Z,2.70
2018-12-18T03:44:36.961Z,3.77
2018-12-18T03:47:05.245Z,3.20
2018-12-18T03:49:33.464Z,4.23
2018-12-18T03:52:01.662Z,3.90
2018-12-18T03:54:29.894Z,4.63
2018-12-18T03:56:58.072Z,3.90
2018-12-18T03:59:26.348Z,3.93
2018-12-18T04:01:54.554Z,3.00
2018-12-18T04:04:22.737Z,3.27
2018-12-18T04:06:50.917Z,4.20
2018-12-18T04:09:19.248Z,3.53
2018-12-18T04:11:52.964Z,3.57
2018-12-18T04:14:21.145Z,5.40
2018-12-18T04:16:49.334Z,3.27
2018-12-18T04:19:17.555Z,3.37
2018-12-18T04:21:45.791Z,5.87
2018-12-18T04:24:14.047Z,3.10
2018-12-18T04:26:42.360Z,3.70
2018-12-18T04:29:10.570Z,3.70
2018-12-18T04:31:38.804Z,3.40
2018-12-18T04:34:06.987Z,4.43
2018-12-18T04:36:35.263Z,3.23
2018-12-18T04:39:05.463Z,3.50
2018-12-18T04:41:33.731Z,4.73
2018-12-18T04:44:02.108Z,3.73
2018-12-18T04:46:30.313Z,4.07
2018-12-18T04:48:58.542Z,4.57
2018-12-18T04:51:26.846Z,4.13
2018-12-18T04:53:55.065Z,3.00
2018-12-18T04:56:23.260Z,4.60
2018-12-18T04:58:51.468Z,4.33
2018-12-18T05:01:19.714Z,3.80
2018-12-18T05:03:47.936Z,4.97
2018-12-18T05:06:16.162Z,4.90
2018-12-18T05:08:44.449Z,3.87
2018-12-18T05:11:12.751Z,3.60
2018-12-18T05:13:40.933Z,6.00
2018-12-18T05:16:09.166Z,3.27
2018-12-18T05:18:37.349Z,4.70
2018-12-18T05:21:05.645Z,4.27
2018-12-18T05:23:34.003Z,3.80
2018-12-18T05:26:02.301Z,4.00
2018-12-18T05:28:30.487Z,4.20
2018-12-18T05:30:58.663Z,4.33
2018-12-18T05:33:26.883Z,3.00
2018-12-18T05:35:55.087Z,4.30
2018-12-18T05:38:23.292Z,3.40
2018-12-18T05:40:51.588Z,3.83
2018-12-18T05:43:19.780Z,4.83
2018-12-18T05:45:48.000Z,4.20
2018-12-18T05:48:16.248Z,3.77
2018-12-18T05:50:44.552Z,5.70
2018-12-18T05:53:12.721Z,6.80
2018-12-18T05:55:41.018Z,5.20
2018-12-18T05:58:09.291Z,5.50
2018-12-18T06:00:37.607Z,4.40
2018-12-18T06:03:05.832Z,4.33
2018-12-18T06:05:34.065Z,4.03
2018-12-18T06:26:09.062Z,3.73
2018-12-18T06:31:15.891Z,3.60
2018-12-18T06:33:44.090Z,3.60
2018-12-18T06:36:12.355Z,3.23
2018-12-18T06:38:40.642Z,3.97
2018-12-18T06:41:08.842Z,4.33
2018-12-18T06:43:37.296Z,4.50
2018-12-18T06:46:06.222Z,4.30
2018-12-18T06:48:34.884Z,5.30
2018-12-18T06:51:03.157Z,3.33
2018-12-18T06:53:31.460Z,4.40
2018-12-18T06:55:59.716Z,3.93
2018-12-18T06:58:28.020Z,4.93
2018-12-18T07:00:56.273Z,5.90
2018-12-18T07:03:24.454Z,5.20
2018-12-18T07:05:52.666Z,5.70
2018-12-18T07:08:20.881Z,4.50
2018-12-18T07:10:49.077Z,3.40
2018-12-18T07:13:17.385Z,5.10
2018-12-18T07:15:45.539Z,4.63
2018-12-18T07:18:13.769Z,4.77
2018-12-18T07:20:41.972Z,3.90
2018-12-18T07:23:10.196Z,3.60
2018-12-18T07:25:38.434Z,4.70
2018-12-18T07:28:06.630Z,3.63
2018-12-18T07:30:34.836Z,3.97
2018-12-18T07:33:03.047Z,5.20
2018-12-18T07:35:31.325Z,3.73
2018-12-18T07:37:59.682Z,3.63
2018-12-18T07:40:27.940Z,4.33
2018-12-18T07:42:56.180Z,4.60
2018-12-18T07:45:24.433Z,4.30
2018-12-18T07:47:52.632Z,3.90
2018-12-18T07:50:20.887Z,5.90
2018-12-18T07:52:49.098Z,5.50
2018-12-18T07:55:17.305Z,4.93
2018-12-18T07:57:45.530Z,3.70
2018-12-18T08:00:13.791Z,4.90
2018-12-18T08:02:42.153Z,4.50
2018-12-18T08:05:10.382Z,4.37
2018-12-18T08:07:38.575Z,3.77
2018-12-18T08:10:07.367Z,3.63
2018-12-18T08:12:36.834Z,4.63
2018-12-18T08:15:06.055Z,5.27
2018-12-18T08:17:35.037Z,4.73
2018-12-18T08:20:20.593Z,11.07
2018-12-18T08:22:50.954Z,7.30
2018-12-18T08:25:27.575Z,7.40
2018-12-18T08:28:01.288Z,3.87
2018-12-18T08:30:31.988Z,4.23
2018-12-18T08:33:07.866Z,7.20
2018-12-18T08:49:08.854Z,9.30
2018-12-18T08:54:29.019Z,5.03
2018-12-18T08:56:58.302Z,7.13
2018-12-18T08:59:27.707Z,8.77
2018-12-18T09:01:57.346Z,8.40
2018-12-18T09:04:26.772Z,7.40
2018-12-18T09:06:55.914Z,10.13
2018-12-18T09:24:40.566Z,7.70
2018-12-18T09:27:10.593Z,8.40
2018-12-18T09:29:45.613Z,7.83
2018-12-18T09:32:23.413Z,8.50
2018-12-18T09:34:53.055Z,6.20
2018-12-18T09:37:23.177Z,8.23
2018-12-18T09:58:26.555Z,7.17
2018-12-18T10:00:58.238Z,8.50
2018-12-18T10:03:33.347Z,8.47
2018-12-18T10:05:58.842Z,8.23
2018-12-18T10:08:28.366Z,7.40
2018-12-18T10:11:14.688Z,5.70
2018-12-18T10:13:51.670Z,5.30
2018-12-18T10:16:22.298Z,6.97
2018-12-18T10:18:55.015Z,8.30
2018-12-18T10:21:33.417Z,3.80
2018-12-18T10:24:04.981Z,3.93
2018-12-18T10:26:34.317Z,3.07
2018-12-18T10:29:04.023Z,4.60
2018-12-18T10:31:33.664Z,4.30
2018-12-18T10:34:04.634Z,3.80
2018-12-18T10:36:38.158Z,4.47
2018-12-18T10:39:11.712Z,4.40
2018-12-18T10:41:41.607Z,5.13
2018-12-18T10:44:12.821Z,5.10
2018-12-18T10:46:42.318Z,5.03
2018-12-18T10:49:20.360Z,5.40
2018-12-18T10:51:55.644Z,4.47
2018-12-18T10:54:28.780Z,6.17
2018-12-18T10:56:58.288Z,6.70
2018-12-18T10:59:30.210Z,6.23
2018-12-18T11:02:08.372Z,5.47
2018-12-18T11:04:40.663Z,5.63
2018-12-18T12:29:48.860Z,5.40
2018-12-18T12:32:17.119Z,5.67
2018-12-18T12:34:45.269Z,5.17
2018-12-18T12:37:13.408Z,5.43
2018-12-18T12:39:41.597Z,6.33
2018-12-18T12:42:09.756Z,4.70
2018-12-18T12:44:38.010Z,4.90
2018-12-18T12:47:06.231Z,4.47
2018-12-18T12:49:39.784Z,4.83
2018-12-18T12:52:07.992Z,4.97
2018-12-18T12:54:36.220Z,5.13
2018-12-18T12:57:04.605Z,4.60
2018-12-18T12:59:32.764Z,5.40
2018-12-18T13:02:00.888Z,4.93
2018-12-18T13:04:29.040Z,4.83
2018-12-18T13:06:57.211Z,5.03
2018-12-18T13:09:25.500Z,4.97
2018-12-18T13:11:53.649Z,5.10
2018-12-18T13:14:21.969Z,5.07
2018-12-18T13:16:50.143Z,4.63
2018-12-18T13:19:18.284Z,4.10
2018-12-18T13:21:46.576Z,4.40
2018-12-18T13:24:14.786Z,4.67
2018-12-18T13:26:42.977Z,4.03
2018-12-18T13:29:11.190Z,4.93
2018-12-18T13:31:39.410Z,5.17
2018-12-18T13:34:07.549Z,4.07
2018-12-18T13:36:35.685Z,4.37
2018-12-18T13:39:06.520Z,4.80
2018-12-18T13:41:34.766Z,5.70
2018-12-18T13:44:03.041Z,5.07
2018-12-18T13:46:37.586Z,5.77
2018-12-18T13:49:05.768Z,4.20
2018-12-18T13:51:34.000Z,4.70
2018-12-18T13:54:02.267Z,4.07
2018-12-18T13:56:30.467Z,4.57
2018-12-18T13:58:58.605Z,3.67
2018-12-18T14:01:32.262Z,3.80
2018-12-18T14:04:00.432Z,4.00
2018-12-18T14:06:28.639Z,3.50
2018-12-18T14:08:56.877Z,4.13
2018-12-18T14:11:25.018Z,3.80
2018-12-18T14:13:53.133Z,5.23
2018-12-18T14:16:21.296Z,4.77
2018-12-18T14:18:49.479Z,4.30
2018-12-18T14:21:17.658Z,3.30
2018-12-18T14:23:45.808Z,2.93
2018-12-18T14:26:13.960Z,3.00
2018-12-18T14:28:42.190Z,2.70
2018-12-18T14:31:10.432Z,3.17
2018-12-18T14:33:38.579Z,3.17
2018-12-18T14:36:06.739Z,3.43
2018-12-18T14:38:34.898Z,2.60
2018-12-18T14:41:03.247Z,3.80
2018-12-18T14:43:31.419Z,3.20
2018-12-18T14:45:59.581Z,3.20
2018-12-18T14:48:27.768Z,2.40
2018-12-18T14:50:55.940Z,3.50
2018-12-18T14:53:24.104Z,3.47
2018-12-18T14:55:52.274Z,2.77
2018-12-18T14:58:20.435Z,3.73
2018-12-18T15:00:48.672Z,3.87
2018-12-18T15:03:16.919Z,2.70
2018-12-18T15:05:45.087Z,4.73
2018-12-18T15:08:13.251Z,10.00
2018-12-18T15:10:41.575Z,4.90
2018-12-18T15:13:09.837Z,2.90
2018-12-18T15:15:38.095Z,3.67
2018-12-18T15:18:06.273Z,2.50
2018-12-18T15:20:34.476Z,4.67
2018-12-18T15:23:02.640Z,2.60
2018-12-18T15:25:30.816Z,2.37
2018-12-18T15:27:59.088Z,2.27
2018-12-18T15:30:27.285Z,3.77
2018-12-18T15:32:55.803Z,2.97
2018-12-18T15:35:24.168Z,3.23
2018-12-18T15:37:52.497Z,3.40
2018-12-18T15:40:20.767Z,2.93
2018-12-18T15:42:48.912Z,3.07
2018-12-18T15:45:17.070Z,3.43
2018-12-18T15:47:45.196Z,4.37
2018-12-18T15:50:13.416Z,3.50
2018-12-18T15:52:41.619Z,4.40
2018-12-18T15:55:09.865Z,3.87
2018-12-18T15:57:38.088Z,3.10
2018-12-18T16:00:07.824Z,3.60
2018-12-18T16:02:36.116Z,3.50
2018-12-18T16:05:04.872Z,3.77
2018-12-18T16:07:33.041Z,3.87
2018-12-18T16:10:01.165Z,4.33
2018-12-18T16:12:29.360Z,4.10
2018-12-18T16:14:57.552Z,4.93
2018-12-18T16:17:25.714Z,3.60
2018-12-18T16:19:53.952Z,4.57
2018-12-18T16:22:22.083Z,5.27
2018-12-18T16:24:50.260Z,4.70
2018-12-18T16:27:18.425Z,5.10
2018-12-18T16:29:46.666Z,3.83
2018-12-18T16:32:14.955Z,4.43
2018-12-18T16:34:43.119Z,5.57
2018-12-18T16:37:11.603Z,5.77
2018-12-18T16:39:39.751Z,5.40
2018-12-18T16:42:07.950Z,6.40
2018-12-18T16:44:36.102Z,5.63
2018-12-18T16:47:04.348Z,5.10
2018-12-18T16:49:32.609Z,6.50
2018-12-18T16:52:00.842Z,9.13
2018-12-18T16:54:29.789Z,7.83
2018-12-18T16:56:58.047Z,6.57
2018-12-18T16:59:26.268Z,6.80
2018-12-18T17:01:54.465Z,5.80
2018-12-18T17:04:22.716Z,5.10
2018-12-18T17:06:50.940Z,5.47
2018-12-18T17:09:19.100Z,5.70
2018-12-18T17:11:47.248Z,4.93
2018-12-18T17:14:15.412Z,4.43
2018-12-18T17:16:43.565Z,7.03
2018-12-18T17:19:11.702Z,6.70
2018-12-18T17:21:39.932Z,5.47
2018-12-18T17:24:08.142Z,4.93
2018-12-18T17:26:36.287Z,4.97
2018-12-18T17:29:04.571Z,5.77
2018-12-18T17:31:32.837Z,5.87
2018-12-18T17:34:01.071Z,5.97
2018-12-18T17:36:29.245Z,5.57
2018-12-18T17:38:57.404Z,6.53
2018-12-18T17:41:25.581Z,7.80
2018-12-18T17:43:53.954Z,6.90
2018-12-18T17:46:22.104Z,4.53
2018-12-18T17:48:50.280Z,6.93
2018-12-18T17:51:18.445Z,5.03
2018-12-18T17:53:46.608Z,5.93
2018-12-18T17:56:14.804Z,6.00
2018-12-18T17:58:42.972Z,5.80
2018-12-18T18:01:11.169Z,5.83
2018-12-18T18:03:39.346Z,5.20
2018-12-18T18:06:07.524Z,4.20
2018-12-18T18:08:35.761Z,5.93
2018-12-18T18:11:04.068Z,7.53
2018-12-18T18:13:32.326Z,6.60
2018-12-18T18:16:00.650Z,5.73
2018-12-18T18:18:28.881Z,5.70
2018-12-18T18:20:57.085Z,6.97
2018-12-18T18:23:25.269Z,5.77
2018-12-18T18:25:53.555Z,5.57
2018-12-18T18:28:21.745Z,6.10
2018-12-18T18:33:49.242Z,6.13
2018-12-18T18:36:17.486Z,6.37
2018-12-18T18:38:45.763Z,7.50
2018-12-18T18:41:14.069Z,7.03
2018-12-18T18:43:42.557Z,4.80
2018-12-18T18:46:10.820Z,6.47
2018-12-18T18:48:39.049Z,6.10
2018-12-18T18:51:07.264Z,5.10
2018-12-18T18:53:35.511Z,6.70
2018-12-18T18:56:03.808Z,6.13
2018-12-18T18:58:32.053Z,7.33
2018-12-18T19:01:00.432Z,9.73
2018-12-18T19:03:28.661Z,10.20
2018-12-18T19:05:56.892Z,6.83
2018-12-18T19:08:25.095Z,6.73
2018-12-18T19:10:53.375Z,7.53
2018-12-18T19:13:21.591Z,5.87
2018-12-18T19:15:49.860Z,7.13
2018-12-18T19:18:18.126Z,7.30
2018-12-18T19:20:46.383Z,7.17
2018-12-18T19:23:14.623Z,7.87
2018-12-18T19:25:42.878Z,8.00
2018-12-18T19:28:11.093Z,7.47
2018-12-18T19:30:39.343Z,6.30
2018-12-18T19:33:07.568Z,6.83
2018-12-18T19:35:35.787Z,5.37
2018-12-18T19:38:27.321Z,7.43
2018-12-18T19:40:55.543Z,8.20
2018-12-18T19:43:23.806Z,5.63
2018-12-18T19:45:52.032Z,7.37
2018-12-18T19:55:23.970Z,8.97
2018-12-18T19:57:52.220Z,6.40
2018-12-18T20:03:29.481Z,7.43
2018-12-18T20:05:57.716Z,6.63
2018-12-18T20:08:25.915Z,7.13
2018-12-18T20:10:54.100Z,6.20
2018-12-18T20:13:22.410Z,9.20
2018-12-18T20:15:50.619Z,7.87
2018-12-18T20:18:18.849Z,7.60
2018-12-18T20:20:47.038Z,7.50
2018-12-18T20:23:15.335Z,9.07
2018-12-18T20:25:43.923Z,7.03
2018-12-18T20:28:12.289Z,6.90
2018-12-18T20:30:40.503Z,6.43
2018-12-18T20:33:08.771Z,5.87
2018-12-18T20:35:37.036Z,6.30
2018-12-18T20:38:05.442Z,6.63
2018-12-18T20:40:33.583Z,6.20
2018-12-18T20:43:01.791Z,5.77
2018-12-18T20:45:29.963Z,8.30
2018-12-18T20:47:58.193Z,9.20
2018-12-18T20:50:26.504Z,7.87
2018-12-18T20:52:54.719Z,9.40
2018-12-18T20:55:22.982Z,6.70
2018-12-18T20:57:51.288Z,5.67
2018-12-18T21:00:19.682Z,5.97
2018-12-18T21:02:47.868Z,6.53
2018-12-18T21:05:16.131Z,9.27
2018-12-18T21:07:44.436Z,5.37
2018-12-18T21:10:12.810Z,8.43
2018-12-18T21:12:41.185Z,7.63
2018-12-18T21:15:09.497Z,7.53
2018-12-18T21:17:37.881Z,9.13
2018-12-18T21:20:07.556Z,8.73
2018-12-18T21:22:35.904Z,7.77
2018-12-18T21:25:04.659Z,6.90
2018-12-18T21:27:33.080Z,7.60
2018-12-18T21:30:01.621Z,8.30
2018-12-18T21:32:36.004Z,10.40
2018-12-18T21:37:57.433Z,6.97
2018-12-18T21:40:25.716Z,6.73
2018-12-18T21:42:54.066Z,6.90
2018-12-18T21:45:22.378Z,6.03
2018-12-18T22:04:09.372Z,8.33
2018-12-18T22:06:37.776Z,8.00
2018-12-18T22:09:07.448Z,7.47
2018-12-18T22:11:35.771Z,7.67
2018-12-18T22:14:04.304Z,6.13
2018-12-18T22:16:33.618Z,7.87
2018-12-18T22:19:02.819Z,7.30
2018-12-18T22:21:31.767Z,7.10
2018-12-18T22:24:00.984Z,7.40
2018-12-18T22:26:31.610Z,8.10
2018-12-18T22:29:00.939Z,7.87
2018-12-18T22:31:29.142Z,8.67
2018-12-18T22:33:58.405Z,8.17
2018-12-18T22:36:26.760Z,8.07
2018-12-18T22:38:55.777Z,7.47
2018-12-18T22:41:23.993Z,7.67
2018-12-18T22:43:53.092Z,7.80
2018-12-18T22:46:21.562Z,6.20
2018-12-18T22:48:49.798Z,6.60
2018-12-18T22:51:18.136Z,6.60
2018-12-18T22:53:46.586Z,8.53
2018-12-18T22:56:14.950Z,6.30
2018-12-18T22:58:43.151Z,8.27
2018-12-18T23:01:20.776Z,7.80
2018-12-18T23:03:49.249Z,6.40
2018-12-18T23:06:17.618Z,5.90
2018-12-18T23:08:50.241Z,6.90
2018-12-18T23:11:16.154Z,10.10
2018-12-18T23:13:44.433Z,7.33
2018-12-18T23:16:12.688Z,7.57
2018-12-18T23:18:40.993Z,5.50
2018-12-18T23:21:09.358Z,5.70
2018-12-18T23:23:37.755Z,6.67
2018-12-18T23:26:06.061Z,7.60
2018-12-18T23:28:34.355Z,5.97
2018-12-18T23:31:02.691Z,6.20
2018-12-18T23:33:31.145Z,8.33
2018-12-18T23:35:59.480Z,6.03
2018-12-18T23:38:27.787Z,6.50
2018-12-18T23:40:56.081Z,6.73
2018-12-18T23:43:24.632Z,5.63
2018-12-18T23:45:52.931Z,6.47
2018-12-18T23:48:21.429Z,6.20
2018-12-18T23:50:49.632Z,7.33
2018-12-18T23:53:17.999Z,6.73
2018-12-18T23:55:46.260Z,6.90
2018-12-18T23:58:14.570Z,5.37
